Arbúcies





Hora UTC 07:20
Temperatura 3.3 ºC
Humitat 94.5 %
Pressió 1030.0 hPa
Pluja 0.0 mm
Velocitat vent 8.8 km/h
Direcció vent SW
Radiació solar 24.7 W/m²

Dades diàries 2020-02-20



Hora UTC (hivern +1h; estiu +2h)
Temperatura (ºC) Humitat (%) Pressió (hPa) Velocitat vent (km/h) Precipitació (mm) Radiació solar (W/m²)
Hora UTC Aire Humitat Pressió Vel. Dir. Vel. Max Dir. Intent. màx 5 min. Rad. Sol.
00:05 4.4 89.4 1032.0 10.6 SW 15.9 WSW 0.0 0.0
00:10 4.7 88.6 1032.0 10.7 SW 17.3 SW 0.0 0.0
00:15 4.8 87.4 1032.0 9.7 SW 15.9 SW 0.0 0.0
00:20 5.0 86.4 1033.0 10.2 SW 15.2 SW 0.0 0.0
00:25 5.1 85.5 1032.0 10.5 SW 17.6 WSW 0.0 0.0
00:30 5.2 84.8 1032.0 11.8 SW 18.0 SW 0.0 0.0
00:35 5.3 84.0 1032.0 11.5 SW 17.6 SW 0.0 0.0
00:40 5.3 83.6 1032.0 9.6 SW 14.8 SW 0.0 0.0
00:45 5.4 83.5 1032.0 9.6 SW 14.5 SW 0.0 0.0
00:50 5.4 83.5 1032.0 8.6 SW 12.7 SW 0.0 0.0
00:55 5.5 84.0 1032.0 7.4 SW 12.3 W 0.0 0.0
01:00 5.5 84.2 1032.0 9.5 SW 14.5 SSW 0.0 0.0
01:05 5.5 83.8 1032.0 9.5 SW 15.2 WSW 0.0 0.0
01:10 5.4 84.2 1032.0 9.1 SW 14.5 SW 0.0 0.0
01:15 5.4 84.6 1032.0 8.4 SW 12.3 SW 0.0 0.0
01:20 5.3 85.6 1032.0 8.2 SW 11.6 SW 0.0 0.0
01:25 5.2 87.1 1032.0 9.0 SW 12.7 SW 0.0 0.0
01:30 5.2 88.3 1032.0 8.2 SW 12.7 SW 0.0 0.0
01:35 5.0 88.6 1032.0 7.2 SW 9.9 SW 0.0 0.0
01:40 4.9 89.6 1032.0 7.6 SW 10.6 SW 0.0 0.0
01:45 4.8 90.2 1031.0 7.6 SW 9.5 SW 0.0 0.0
01:50 4.5 90.4 1032.0 6.8 SW 8.5 SSW 0.0 0.0
01:55 4.4 91.2 1031.0 7.0 SSW 8.5 SSW 0.0 0.0
02:00 4.5 91.9 1031.0 7.1 SSW 9.2 SW 0.0 0.0
02:05 4.4 92.0 1031.0 7.4 SW 10.9 SW 0.0 0.0
02:10 4.3 92.2 1031.0 7.1 SW 10.6 SW 0.0 0.0
02:15 4.2 92.4 1031.0 7.4 SW 12.3 WSW 0.0 0.0
02:20 4.3 92.9 1032.0 8.0 SW 13.8 SW 0.0 0.0
02:25 4.5 93.1 1031.0 10.3 SW 17.3 SW 0.0 0.0
02:30 5.0 92.5 1031.0 10.4 SW 17.3 SW 0.0 0.0
02:35 5.0 90.8 1031.0 7.3 SW 11.3 WSW 0.0 0.0
02:40 4.6 90.6 1031.0 6.8 SW 11.3 SW 0.0 0.0
02:45 4.3 91.0 1031.0 6.8 SW 9.5 SW 0.0 0.0
02:50 4.2 91.4 1031.0 6.6 SW 8.5 SW 0.0 0.0
02:55 4.2 92.1 1031.0 7.9 SW 12.7 WSW 0.0 0.0
03:00 4.2 92.2 1031.0 6.7 SW 10.9 WSW 0.0 0.0
03:05 4.3 92.4 1031.0 7.1 SW 13.1 WSW 0.0 0.0
03:10 4.4 91.8 1031.0 6.1 WSW 12.3 W 0.0 0.0
03:15 4.1 91.3 1030.0 4.9 SW 7.4 WNW 0.0 0.0
03:20 3.9 92.0 1031.0 6.8 SW 11.6 SW 0.0 0.0
03:25 4.1 91.9 1030.0 6.6 SW 11.3 SW 0.0 0.0
03:30 3.7 91.2 1030.0 7.1 SW 10.2 WNW 0.0 0.0
03:35 3.7 92.6 1030.0 9.2 SW 13.8 SW 0.0 0.0
03:40 3.9 92.6 1031.0 10.1 SW 13.4 SW 0.0 0.0
03:45 4.0 91.9 1031.0 8.6 SW 13.1 SW 0.0 0.0
03:50 3.7 91.6 1031.0 8.1 SW 10.9 SW 0.0 0.0
03:55 3.8 92.5 1030.0 10.9 SW 15.2 SW 0.0 0.0
04:00 3.9 92.1 1030.0 11.1 SW 17.6 SW 0.0 0.0
04:05 3.9 91.5 1030.0 9.6 SW 14.1 SSW 0.0 0.0
04:10 3.7 91.2 1030.0 8.0 SW 13.4 SW 0.0 0.0
04:15 3.4 91.7 1030.0 7.8 SW 10.2 SW 0.0 0.0
04:20 3.2 92.1 1031.0 8.1 SW 10.9 SW 0.0 0.0
04:25 3.2 93.0 1030.0 7.9 SW 15.2 SW 0.0 0.0
04:30 3.4 93.5 1030.0 9.7 SW 14.5 SSW 0.0 0.0
04:35 3.6 93.1 1030.0 8.6 SW 11.6 WSW 0.0 0.0
04:40 3.5 92.4 1030.0 7.8 SW 10.6 SW 0.0 0.0
04:45 3.4 92.6 1030.0 7.3 SW 11.3 WSW 0.0 0.0
04:50 3.3 92.7 1031.0 6.3 SW 10.2 SW 0.0 0.0
04:55 3.0 92.6 1030.0 5.8 SW 8.1 SSW 0.0 0.0
05:00 3.1 93.3 1030.0 6.9 SW 11.6 WSW 0.0 0.0
05:05 3.0 93.2 1030.0 6.4 SW 8.5 SSW 0.0 0.0
05:10 2.8 93.4 1030.0 6.2 SW 8.5 SW 0.0 0.0
05:15 2.9 93.9 1030.0 6.9 SW 10.6 WSW 0.0 0.0
05:20 3.0 94.0 1031.0 7.6 SW 12.0 WSW 0.0 0.0
05:25 3.2 94.1 1030.0 7.4 SW 12.3 SW 0.0 0.0
05:30 2.9 93.6 1030.0 8.9 SW 13.8 SW 0.0 0.0
05:35 3.3 94.4 1030.0 10.3 SW 14.1 SW 0.0 0.0
05:40 3.4 93.5 1030.0 10.0 SW 14.8 SW 0.0 0.0
05:45 3.3 93.2 1030.0 10.6 SW 13.8 SW 0.0 0.0
05:50 3.2 93.1 1031.0 10.5 SW 15.9 SW 0.0 0.0
05:55 3.4 93.2 1030.0 8.4 SW 12.3 WSW 0.0 0.0
06:00 3.3 92.9 1030.0 8.6 SW 15.5 SW 0.0 0.0
06:05 3.1 92.3 1030.0 7.2 SW 11.3 SW 0.0 0.0
06:10 3.1 93.1 1030.0 8.4 SW 12.0 SW 0.0 0.0
06:15 3.3 92.9 1030.0 9.1 SW 17.6 SW 0.0 0.0
06:20 3.5 92.7 1030.0 8.9 SW 13.1 SW 0.0 0.0
06:25 3.6 91.7 1030.0 7.5 SW 10.6 SSW 0.0 0.0
06:30 3.3 91.3 1030.0 7.5 SW 11.3 SW 0.0 0.0
06:35 3.1 91.8 1030.0 9.4 SW 12.0 SSW 0.0 0.0
06:40 3.1 92.5 1030.0 10.5 SW 13.4 SW 0.0 1.3
06:45 2.9 92.4 1030.0 9.9 SW 13.1 SW 0.0 3.4
06:50 2.7 92.7 1031.0 8.7 SW 10.2 SW 0.0 6.0
06:55 2.5 93.3 1030.0 9.4 SW 12.0 SSW 0.0 9.5
07:00 2.6 93.7 1030.0 10.0 SW 13.1 SW 0.0 13.1
07:05 2.6 94.1 1030.0 9.4 SW 13.4 SW 0.0 16.7
07:10 2.9 94.5 1030.0 10.0 SW 13.1 SW 0.0 20.0
07:15 2.9 94.2 1030.0 11.3 SW 13.8 SW 0.0 22.7
07:20 3.3 94.5 1030.0 8.8 SW 13.4 SW 0.0 24.7
Màxima 5.5 94.5 1033.0 11.8 SW 18.0 SW 0.0 24.7
Mínima 2.5 83.5 1030.0
Total 0.0